createdAt,value
2022-11-06T00:02:01.601Z,60.30
2022-11-06T00:04:30.162Z,60.25
2022-11-06T00:06:57.768Z,60.23
2022-11-06T00:09:25.317Z,60.23
2022-11-06T00:11:53.219Z,60.40
2022-11-06T00:14:20.891Z,60.67
2022-11-06T00:16:48.556Z,60.10
2022-11-06T00:19:16.851Z,60.07
2022-11-06T00:21:44.999Z,60.40
2022-11-06T00:24:14.492Z,60.06
2022-11-06T00:26:42.632Z,60.39
2022-11-06T00:29:14.385Z,60.54
2022-11-06T00:31:42.167Z,60.47
2022-11-06T00:34:10.805Z,60.22
2022-11-06T00:36:38.624Z,60.68
2022-11-06T00:39:06.598Z,60.49
2022-11-06T00:41:34.294Z,60.56
2022-11-06T00:44:02.971Z,60.56
2022-11-06T00:46:31.235Z,60.70
2022-11-06T00:48:58.718Z,60.60
2022-11-06T00:51:39.440Z,60.72
2022-11-06T00:54:11.013Z,60.38
2022-11-06T00:56:38.567Z,60.00
2022-11-06T00:59:08.121Z,60.12
2022-11-06T01:01:38.959Z,60.84
2022-11-06T01:04:11.919Z,60.66
2022-11-06T01:06:43.139Z,60.77
2022-11-06T01:09:13.653Z,60.87
2022-11-06T01:12:11.123Z,60.66
2022-11-06T01:14:31.537Z,60.61
2022-11-06T01:16:58.960Z,60.58
2022-11-06T01:19:26.561Z,60.07
2022-11-06T01:21:54.497Z,60.26
2022-11-06T01:24:25.437Z,60.07
2022-11-06T01:27:24.459Z,59.99
2022-11-06T01:29:41.287Z,60.43
2022-11-06T01:32:09.095Z,60.16
2022-11-06T01:34:36.597Z,60.78
2022-11-06T01:37:04.377Z,60.40
2022-11-06T01:39:32.347Z,60.71
2022-11-06T01:41:59.869Z,60.22
2022-11-06T01:44:36.078Z,61.15
2022-11-06T01:47:07.491Z,60.68
2022-11-06T01:49:38.399Z,61.23
2022-11-06T01:52:09.140Z,61.24
2022-11-06T01:54:40.295Z,60.62
2022-11-06T01:57:08.586Z,60.55
2022-11-06T01:59:40.187Z,60.35
2022-11-06T02:02:07.897Z,60.38
2022-11-06T02:04:42.916Z,60.53
2022-11-06T02:07:11.119Z,60.61
2022-11-06T02:09:39.140Z,60.51
2022-11-06T02:12:12.331Z,60.88
2022-11-06T02:15:08.468Z,60.84
2022-11-06T02:17:54.073Z,60.27
2022-11-06T02:20:32.443Z,60.14
2022-11-06T02:23:25.256Z,60.53
2022-11-06T02:26:11.122Z,60.16
2022-11-06T02:28:53.362Z,60.17
2022-11-06T02:31:26.120Z,60.42
2022-11-06T02:34:00.128Z,60.19
2022-11-06T02:36:34.986Z,60.27
2022-11-06T02:39:10.192Z,60.39
2022-11-06T02:41:42.459Z,60.56
2022-11-06T02:44:15.236Z,60.25
2022-11-06T02:46:51.609Z,60.10
2022-11-06T02:49:31.773Z,59.88
2022-11-06T02:52:06.815Z,59.98
2022-11-06T02:54:38.439Z,59.80
2022-11-06T02:57:10.624Z,60.00
2022-11-06T03:00:04.550Z,59.74
2022-11-06T03:03:01.272Z,59.64
2022-11-06T03:05:36.569Z,59.31
2022-11-06T03:08:34.553Z,59.20
2022-11-06T03:11:12.404Z,59.23
2022-11-06T03:13:51.423Z,59.37
2022-11-06T03:16:47.884Z,59.28
2022-11-06T03:19:15.317Z,59.32
2022-11-06T03:21:58.079Z,59.21
2022-11-06T03:24:34.952Z,59.22
2022-11-06T03:27:10.733Z,59.35
2022-11-06T03:29:49.665Z,58.86
2022-11-06T03:32:39.599Z,58.97
2022-11-06T03:35:15.454Z,59.06
2022-11-06T03:37:51.207Z,59.37
2022-11-06T03:40:22.248Z,59.54
2022-11-06T03:42:55.116Z,59.33
2022-11-06T03:45:26.829Z,59.22
2022-11-06T03:48:05.087Z,59.49
2022-11-06T03:50:37.701Z,59.44
2022-11-06T03:53:13.260Z,59.50
2022-11-06T03:56:02.525Z,60.25
2022-11-06T03:58:38.933Z,60.10
2022-11-06T04:01:10.625Z,60.09
2022-11-06T04:04:00.016Z,61.05
2022-11-06T04:06:32.743Z,60.35
2022-11-06T04:09:22.346Z,60.08
2022-11-06T04:12:09.456Z,60.16
2022-11-06T04:14:40.225Z,60.09
2022-11-06T04:17:12.342Z,60.01
2022-11-06T04:19:49.880Z,59.94
2022-11-06T04:22:32.635Z,60.30
2022-11-06T04:25:26.400Z,60.47
2022-11-06T04:28:26.118Z,60.21
2022-11-06T04:31:17.352Z,60.87
2022-11-06T04:34:02.917Z,60.61
2022-11-06T04:36:42.076Z,60.71
2022-11-06T04:39:28.993Z,60.87
2022-11-06T04:42:16.325Z,60.65
2022-11-06T04:44:50.722Z,60.50
2022-11-06T04:47:21.629Z,60.38
2022-11-06T04:49:52.315Z,60.37
2022-11-06T04:52:27.799Z,61.08
2022-11-06T04:54:57.938Z,60.92
2022-11-06T04:57:26.585Z,60.59
2022-11-06T04:59:54.562Z,60.61
2022-11-06T05:02:22.191Z,60.62
2022-11-06T05:04:49.778Z,60.81
2022-11-06T05:07:17.771Z,61.13
2022-11-06T05:09:45.891Z,61.21
2022-11-06T05:12:13.683Z,61.12
2022-11-06T05:14:41.168Z,60.87
2022-11-06T05:17:08.684Z,61.01
2022-11-06T05:19:36.174Z,60.55
2022-11-06T05:22:22.092Z,60.88
2022-11-06T05:24:49.587Z,60.59
2022-11-06T05:27:17.168Z,60.49
2022-11-06T05:29:44.682Z,60.18
2022-11-06T05:32:12.276Z,60.09
2022-11-06T05:34:39.804Z,60.16
2022-11-06T05:37:07.223Z,60.29
2022-11-06T05:39:39.005Z,60.07
2022-11-06T05:42:09.212Z,60.42
2022-11-06T05:44:37.827Z,60.56
2022-11-06T05:47:05.308Z,60.33
2022-11-06T05:49:32.970Z,60.79
2022-11-06T05:52:00.383Z,60.35
2022-11-06T05:54:27.937Z,60.47
2022-11-06T05:56:55.459Z,60.71
2022-11-06T05:59:22.980Z,60.29
2022-11-06T06:01:50.604Z,60.68
2022-11-06T06:04:18.309Z,60.59
2022-11-06T06:06:45.951Z,60.42
2022-11-06T06:09:13.419Z,59.80
2022-11-06T06:11:43.428Z,59.78
2022-11-06T06:14:11.018Z,60.11
2022-11-06T06:16:38.799Z,59.77
2022-11-06T06:19:06.262Z,60.28
2022-11-06T06:21:33.826Z,60.11
2022-11-06T06:24:01.327Z,59.88
2022-11-06T06:26:28.877Z,60.14
2022-11-06T06:28:56.336Z,60.53
2022-11-06T06:31:23.939Z,60.56
2022-11-06T06:33:51.380Z,60.96
2022-11-06T06:36:18.953Z,60.95
2022-11-06T06:38:46.497Z,60.80
2022-11-06T06:41:14.029Z,61.22
2022-11-06T06:43:41.663Z,61.52
2022-11-06T06:46:09.630Z,61.28
2022-11-06T06:48:37.251Z,61.58
2022-11-06T06:51:05.140Z,61.37
2022-11-06T06:53:32.608Z,61.13
2022-11-06T06:56:01.940Z,60.92
2022-11-06T06:58:30.139Z,60.86
2022-11-06T07:01:02.704Z,61.16
2022-11-06T07:03:30.434Z,60.71
2022-11-06T07:05:59.045Z,60.68
2022-11-06T07:08:27.839Z,61.07
2022-11-06T07:11:02.732Z,60.74
2022-11-06T07:13:35.468Z,60.58
2022-11-06T07:16:09.206Z,60.98
2022-11-06T07:18:38.154Z,60.89
2022-11-06T07:21:10.948Z,60.97
2022-11-06T07:23:38.994Z,61.36
2022-11-06T07:26:06.779Z,61.28
2022-11-06T07:28:34.592Z,61.20
2022-11-06T07:31:04.495Z,61.83
2022-11-06T07:33:32.417Z,61.53
2022-11-06T07:36:08.999Z,61.56
2022-11-06T07:38:38.154Z,61.03
2022-11-06T07:41:08.698Z,61.00
2022-11-06T07:43:36.784Z,60.86
2022-11-06T07:46:07.180Z,60.39
2022-11-06T07:48:34.970Z,60.35
2022-11-06T07:51:04.560Z,60.58
2022-11-06T07:53:32.737Z,60.93
2022-11-06T07:56:00.693Z,60.55
2022-11-06T07:58:28.610Z,60.80
2022-11-06T08:00:58.611Z,61.02
2022-11-06T08:03:27.267Z,60.96
2022-11-06T08:05:55.172Z,60.54
2022-11-06T08:08:23.147Z,60.73
2022-11-06T08:10:52.267Z,60.59
2022-11-06T08:13:19.887Z,60.62
2022-11-06T08:15:47.532Z,60.39
2022-11-06T08:18:15.476Z,60.53
2022-11-06T08:20:43.248Z,60.51
2022-11-06T08:23:13.286Z,60.62
2022-11-06T08:25:41.171Z,60.63
2022-11-06T08:28:09.978Z,60.59
2022-11-06T08:30:37.822Z,60.51
2022-11-06T08:33:08.142Z,60.54
2022-11-06T08:35:36.057Z,60.66
2022-11-06T08:38:04.474Z,60.50
2022-11-06T08:40:32.447Z,60.89
2022-11-06T08:43:05.151Z,60.95
2022-11-06T08:45:35.950Z,60.46
2022-11-06T08:48:04.350Z,60.63
2022-11-06T08:50:33.181Z,60.39
2022-11-06T08:53:04.371Z,60.28
2022-11-06T08:55:33.850Z,59.98
2022-11-06T08:58:01.723Z,60.51
2022-11-06T09:00:29.637Z,60.28
2022-11-06T09:03:02.185Z,60.42
2022-11-06T09:05:31.122Z,60.15
2022-11-06T09:07:59.542Z,59.81
2022-11-06T09:10:28.101Z,59.64
2022-11-06T09:12:58.638Z,59.87
2022-11-06T09:15:26.841Z,59.96
2022-11-06T09:17:54.962Z,59.84
2022-11-06T09:20:24.834Z,59.34
2022-11-06T09:22:52.857Z,59.97
2022-11-06T09:25:20.398Z,59.51
2022-11-06T09:27:58.763Z,59.54
2022-11-06T09:30:29.759Z,59.61
2022-11-06T09:32:59.848Z,59.05
2022-11-06T09:35:36.670Z,58.86
2022-11-06T09:38:06.183Z,59.01
2022-11-06T09:40:42.666Z,59.25
2022-11-06T09:46:26.327Z,59.59
2022-11-06T09:49:17.129Z,59.29
2022-11-06T09:52:16.844Z,59.80
2022-11-06T09:54:55.989Z,59.05
2022-11-06T09:58:05.799Z,59.27
2022-11-06T10:00:33.209Z,59.03
2022-11-06T10:03:12.723Z,59.37
2022-11-06T10:05:41.663Z,59.39
2022-11-06T10:08:22.422Z,60.36
2022-11-06T10:11:54.214Z,59.86
2022-11-06T10:14:30.261Z,60.16
2022-11-06T10:17:03.455Z,60.56
2022-11-06T10:19:30.891Z,60.65
2022-11-06T10:22:07.306Z,60.56
2022-11-06T10:24:53.271Z,60.10
2022-11-06T10:27:33.455Z,59.73
2022-11-06T10:30:21.240Z,59.15
2022-11-06T10:33:26.136Z,59.60
2022-11-06T10:36:09.943Z,59.01
2022-11-06T10:38:47.278Z,59.11
2022-11-06T10:41:23.835Z,58.91
2022-11-06T10:44:14.982Z,59.07
2022-11-06T10:46:52.046Z,59.67
2022-11-06T10:49:45.165Z,59.58
2022-11-06T10:52:33.866Z,59.49
2022-11-06T10:55:01.256Z,59.01
2022-11-06T10:57:43.876Z,58.72
2022-11-06T11:00:14.167Z,59.01
2022-11-06T11:02:48.690Z,58.72
2022-11-06T11:05:19.659Z,59.06
2022-11-06T11:07:51.627Z,59.20
2022-11-06T11:10:32.872Z,58.65
2022-11-06T11:13:07.076Z,59.33
2022-11-06T11:15:46.933Z,58.99
2022-11-06T11:18:34.378Z,58.91
2022-11-06T11:21:18.623Z,58.73
2022-11-06T11:24:04.162Z,58.73
2022-11-06T11:27:01.103Z,59.35
2022-11-06T11:29:45.360Z,59.52
2022-11-06T11:32:16.088Z,59.71
2022-11-06T11:34:51.358Z,59.17
2022-11-06T11:37:28.434Z,58.55
2022-11-06T11:40:16.354Z,58.82
2022-11-06T11:42:43.939Z,58.89
2022-11-06T11:45:14.866Z,58.65
2022-11-06T11:47:46.817Z,58.79
2022-11-06T11:50:20.616Z,58.48
2022-11-06T11:52:52.765Z,59.09
2022-11-06T11:55:26.756Z,59.50
2022-11-06T11:57:57.704Z,58.46
2022-11-06T12:00:26.192Z,58.74
2022-11-06T12:02:58.980Z,58.92
2022-11-06T12:05:35.059Z,59.08
2022-11-06T12:08:03.407Z,58.85
2022-11-06T12:10:33.863Z,58.98
2022-11-06T12:13:22.359Z,59.81
2022-11-06T12:16:07.011Z,59.73
2022-11-06T12:18:41.067Z,59.09
2022-11-06T12:21:22.172Z,60.01
2022-11-06T12:24:00.220Z,60.46
2022-11-06T12:26:37.549Z,60.14
2022-11-06T12:29:11.931Z,60.48
2022-11-06T12:31:59.594Z,60.45
2022-11-06T12:34:54.455Z,60.92
2022-11-06T12:37:40.359Z,60.02
2022-11-06T12:40:25.658Z,60.48
2022-11-06T12:43:07.102Z,61.04
2022-11-06T12:46:08.546Z,60.73
2022-11-06T12:48:48.095Z,60.97
2022-11-06T12:51:37.042Z,60.96
2022-11-06T12:54:41.451Z,60.63
2022-11-06T12:57:30.640Z,60.59
2022-11-06T13:00:21.179Z,60.50
2022-11-06T13:03:10.865Z,61.25
2022-11-06T13:05:47.567Z,61.42
2022-11-06T13:08:35.828Z,60.72
2022-11-06T13:11:09.590Z,60.68
2022-11-06T13:13:50.039Z,60.26
2022-11-06T13:16:28.261Z,61.41
2022-11-06T13:19:15.630Z,61.39
2022-11-06T13:21:52.278Z,61.77
2022-11-06T13:24:44.467Z,61.62
2022-11-06T13:27:38.528Z,61.94
2022-11-06T13:30:17.211Z,62.18
2022-11-06T13:33:10.122Z,61.85
2022-11-06T13:35:41.601Z,61.63
2022-11-06T13:38:16.873Z,61.76
2022-11-06T13:40:48.595Z,61.53
2022-11-06T13:43:29.690Z,61.37
2022-11-06T13:46:18.999Z,61.73
2022-11-06T13:49:08.153Z,61.76
2022-11-06T13:51:42.617Z,61.78
2022-11-06T13:54:15.210Z,62.60
2022-11-06T13:57:05.717Z,62.30
2022-11-06T13:59:39.144Z,62.02
2022-11-06T14:02:33.910Z,62.37
2022-11-06T14:05:04.081Z,61.64
2022-11-06T14:07:34.169Z,62.02
2022-11-06T14:10:02.139Z,61.92
2022-11-06T14:12:30.560Z,62.16
2022-11-06T14:15:19.331Z,62.42
2022-11-06T14:18:01.450Z,62.37
2022-11-06T14:20:29.250Z,61.99
2022-11-06T14:23:31.577Z,62.49
2022-11-06T14:26:11.496Z,62.29
2022-11-06T14:28:41.845Z,62.00
2022-11-06T14:31:14.022Z,62.11
2022-11-06T14:33:43.312Z,61.29
2022-11-06T14:36:25.874Z,61.97
2022-11-06T14:38:54.211Z,61.99
2022-11-06T14:41:36.689Z,62.58
2022-11-06T14:44:26.190Z,62.73
2022-11-06T14:46:59.988Z,62.15
2022-11-06T14:49:38.405Z,62.62
2022-11-06T14:52:15.849Z,62.38
2022-11-06T14:54:50.894Z,62.41
2022-11-06T14:57:35.820Z,62.15
2022-11-06T15:00:04.607Z,62.29
2022-11-06T15:02:34.796Z,61.93
2022-11-06T15:05:08.597Z,62.23
2022-11-06T15:08:10.657Z,62.76
2022-11-06T15:10:44.290Z,62.69
2022-11-06T15:13:18.026Z,62.49
2022-11-06T15:15:50.513Z,62.55
2022-11-06T15:18:22.875Z,62.59
2022-11-06T15:21:01.066Z,62.63
2022-11-06T15:23:31.386Z,62.78
2022-11-06T15:26:07.833Z,62.35
2022-11-06T15:28:46.603Z,62.13
2022-11-06T15:31:18.939Z,62.47
2022-11-06T15:34:24.955Z,62.69
2022-11-06T15:37:03.722Z,62.85
2022-11-06T15:39:38.138Z,62.28
2022-11-06T15:42:13.538Z,62.91
2022-11-06T15:44:42.394Z,62.95
2022-11-06T15:47:27.234Z,63.27
2022-11-06T15:50:17.002Z,63.02
2022-11-06T15:52:46.153Z,63.05
2022-11-06T15:55:28.707Z,63.43
2022-11-06T15:58:30.393Z,63.33
2022-11-06T16:01:03.178Z,63.09
2022-11-06T16:03:32.387Z,62.72
2022-11-06T16:06:03.503Z,63.05
2022-11-06T16:08:32.501Z,62.21
2022-11-06T16:11:01.374Z,62.53
2022-11-06T16:13:29.362Z,62.84
2022-11-06T16:15:59.419Z,63.31
2022-11-06T16:18:35.757Z,63.53
2022-11-06T16:21:19.355Z,64.04
2022-11-06T16:23:51.419Z,63.64
2022-11-06T16:26:32.682Z,63.46
2022-11-06T16:29:00.721Z,63.44
2022-11-06T16:31:30.921Z,63.37
2022-11-06T16:33:58.337Z,63.35
2022-11-06T16:36:28.227Z,62.99
2022-11-06T16:39:47.633Z,63.66
2022-11-06T16:42:22.617Z,63.08
2022-11-06T16:45:21.508Z,63.28
2022-11-06T16:48:07.218Z,63.45
2022-11-06T16:50:53.208Z,64.01
2022-11-06T16:53:29.608Z,63.76
2022-11-06T16:56:03.285Z,63.92
2022-11-06T16:58:34.898Z,64.00
2022-11-06T17:01:06.371Z,63.89
2022-11-06T17:03:40.855Z,64.49
2022-11-06T17:06:21.429Z,64.13
2022-11-06T17:09:09.904Z,64.71
2022-11-06T17:11:38.902Z,64.24
2022-11-06T17:14:18.556Z,64.01
2022-11-06T17:16:49.910Z,64.18
2022-11-06T17:19:19.403Z,64.36
2022-11-06T17:21:47.625Z,64.43
2022-11-06T17:27:02.650Z,64.79
2022-11-06T17:29:30.200Z,64.78
2022-11-06T17:31:57.708Z,64.36
2022-11-06T17:34:25.174Z,64.53
2022-11-06T17:36:52.845Z,64.61
2022-11-06T17:39:20.567Z,64.20
2022-11-06T17:41:48.169Z,64.42
2022-11-06T17:44:15.735Z,64.45
2022-11-06T17:46:47.971Z,64.56
2022-11-06T17:49:18.487Z,64.67
2022-11-06T17:51:52.942Z,64.95
2022-11-06T17:54:22.955Z,64.43
2022-11-06T17:56:51.563Z,64.30
2022-11-06T17:59:20.065Z,64.62
2022-11-06T18:01:51.020Z,65.00
2022-11-06T18:04:20.318Z,65.10
2022-11-06T18:06:49.523Z,64.68
2022-11-06T18:09:17.036Z,64.52
2022-11-06T18:11:44.729Z,64.70
2022-11-06T18:14:12.740Z,64.54
2022-11-06T18:16:43.984Z,64.67
2022-11-06T18:19:15.077Z,64.96
2022-11-06T18:21:42.685Z,64.57
2022-11-06T18:24:10.237Z,64.59
2022-11-06T18:26:37.876Z,64.54
2022-11-06T18:29:06.953Z,64.38
2022-11-06T18:31:35.584Z,64.43
2022-11-06T18:34:04.262Z,64.12
2022-11-06T18:36:33.412Z,64.76
2022-11-06T18:39:00.931Z,65.26
2022-11-06T18:41:29.962Z,64.90
2022-11-06T18:43:58.306Z,64.90
2022-11-06T18:46:30.003Z,64.31
2022-11-06T18:48:58.414Z,64.66
2022-11-06T18:51:35.495Z,64.70
2022-11-06T18:54:09.302Z,64.97
2022-11-06T18:56:38.700Z,64.43
2022-11-06T18:59:10.315Z,64.60
2022-11-06T19:01:38.167Z,64.51
2022-11-06T19:04:05.979Z,64.46
2022-11-06T19:06:33.594Z,64.61
2022-11-06T19:09:01.273Z,64.48
2022-11-06T19:11:28.776Z,64.86
2022-11-06T19:13:56.459Z,64.80
2022-11-06T19:16:24.134Z,65.04
2022-11-06T19:21:30.955Z,65.28
2022-11-06T19:24:04.664Z,65.44
2022-11-06T19:26:35.661Z,64.71
2022-11-06T19:29:05.945Z,65.24
2022-11-06T19:31:34.139Z,65.12
2022-11-06T19:34:05.442Z,65.45
2022-11-06T19:36:33.560Z,65.61
2022-11-06T19:39:01.750Z,65.72
2022-11-06T19:41:31.870Z,65.29
2022-11-06T19:43:59.499Z,64.95
2022-11-06T19:46:31.109Z,64.91
2022-11-06T19:49:04.419Z,65.01
2022-11-06T19:51:33.577Z,65.27
2022-11-06T19:54:05.910Z,65.17
2022-11-06T19:56:33.598Z,65.10
2022-11-06T19:59:02.135Z,65.00
2022-11-06T20:01:30.144Z,64.96
2022-11-06T20:03:57.769Z,65.26
2022-11-06T20:06:27.529Z,64.82
2022-11-06T20:08:55.263Z,65.22
2022-11-06T20:11:22.870Z,64.98
2022-11-06T20:13:50.388Z,64.85
2022-11-06T20:16:20.279Z,64.92
2022-11-06T20:18:53.031Z,65.69
2022-11-06T20:21:21.506Z,64.99
2022-11-06T20:23:49.641Z,65.24
2022-11-06T20:26:17.515Z,65.70
2022-11-06T20:28:47.551Z,65.02
2022-11-06T20:31:19.517Z,65.20
2022-11-06T20:33:47.846Z,65.18
2022-11-06T20:36:23.254Z,65.32
2022-11-06T20:38:56.678Z,65.46
2022-11-06T20:41:24.934Z,65.20
2022-11-06T20:43:53.512Z,65.17
2022-11-06T20:46:22.364Z,65.23
2022-11-06T20:48:50.359Z,65.12
2022-11-06T20:51:23.544Z,65.27
2022-11-06T20:53:51.229Z,65.16
2022-11-06T20:56:20.872Z,64.93
2022-11-06T20:58:48.581Z,65.10
2022-11-06T21:01:19.943Z,64.67
2022-11-06T21:03:50.006Z,64.63
2022-11-06T21:06:18.912Z,65.12
2022-11-06T21:08:47.289Z,65.31
2022-11-06T21:11:18.149Z,65.04
2022-11-06T21:13:48.520Z,65.58
2022-11-06T21:16:25.940Z,64.92
2022-11-06T21:18:54.099Z,64.78
2022-11-06T21:21:25.245Z,65.11
2022-11-06T21:23:54.019Z,65.12
2022-11-06T21:26:36.731Z,65.21
2022-11-06T21:29:07.074Z,64.23
2022-11-06T21:31:35.063Z,64.84
2022-11-06T21:34:04.242Z,65.22
2022-11-06T21:36:36.992Z,64.56
2022-11-06T21:39:10.652Z,64.75
2022-11-06T21:41:39.083Z,64.67
2022-11-06T21:44:07.728Z,65.07
2022-11-06T21:46:35.316Z,65.34
2022-11-06T21:49:02.768Z,65.51
2022-11-06T21:51:32.952Z,65.57
2022-11-06T21:54:19.108Z,65.32
2022-11-06T21:56:50.768Z,65.54
2022-11-06T21:59:24.924Z,65.08
2022-11-06T22:01:52.986Z,65.39
2022-11-06T22:04:21.027Z,65.97
2022-11-06T22:06:48.545Z,65.55
2022-11-06T22:09:19.545Z,65.57
2022-11-06T22:11:49.644Z,65.31
2022-11-06T22:14:17.458Z,65.79
2022-11-06T22:16:46.890Z,65.73
2022-11-06T22:19:17.671Z,65.73
2022-11-06T22:21:45.672Z,66.06
2022-11-06T22:24:13.858Z,66.13
2022-11-06T22:26:41.430Z,65.89
2022-11-06T22:29:13.685Z,66.54
2022-11-06T22:31:41.212Z,66.48
2022-11-06T22:34:10.763Z,66.59
2022-11-06T22:36:38.861Z,66.24
2022-11-06T22:39:09.020Z,66.87
2022-11-06T22:41:39.246Z,66.54
2022-11-06T22:44:07.633Z,66.62
2022-11-06T22:46:35.400Z,66.68
2022-11-06T22:49:04.408Z,66.82
2022-11-06T22:51:33.256Z,67.60
2022-11-06T22:54:02.157Z,67.52
2022-11-06T22:56:31.217Z,67.72
2022-11-06T22:59:05.515Z,68.33
2022-11-06T23:01:38.689Z,67.89
2022-11-06T23:04:15.012Z,67.94
2022-11-06T23:06:44.476Z,68.40
2022-11-06T23:09:12.537Z,68.12
2022-11-06T23:11:40.030Z,68.34
2022-11-06T23:14:09.169Z,68.58
2022-11-06T23:16:55.813Z,68.70
2022-11-06T23:19:24.470Z,68.65
2022-11-06T23:21:52.691Z,68.83
2022-11-06T23:24:20.137Z,69.21
2022-11-06T23:26:47.646Z,69.16
2022-11-06T23:29:15.256Z,68.77
2022-11-06T23:31:42.689Z,68.89
2022-11-06T23:34:10.228Z,68.38
2022-11-06T23:36:37.741Z,68.48
2022-11-06T23:39:05.524Z,68.53
2022-11-06T23:41:48.368Z,68.16
2022-11-06T23:44:34.362Z,69.09
2022-11-06T23:47:02.188Z,69.13
2022-11-06T23:49:30.058Z,68.96
2022-11-06T23:51:57.955Z,68.99
2022-11-06T23:54:25.805Z,68.72
2022-11-06T23:56:53.369Z,68.80
2022-11-06T23:59:21.142Z,68.72
